createdAt,value
2018-04-23T00:04:44.722Z,12.7
2018-04-23T00:10:13.246Z,12.7
2018-04-23T00:15:40.617Z,12.6
2018-04-23T00:21:08.100Z,12.5
2018-04-23T00:26:35.490Z,12.5
2018-04-23T00:32:03.955Z,12.4
2018-04-23T00:37:31.342Z,12.4
2018-04-23T00:42:59.775Z,12.3
2018-04-23T00:48:27.475Z,12.3
2018-04-23T00:53:55.632Z,12.3
2018-04-23T00:59:24.092Z,12.2
2018-04-23T01:04:51.670Z,12.1
2018-04-23T01:10:18.838Z,12
2018-04-23T01:15:46.288Z,12
2018-04-23T01:21:13.542Z,12
2018-04-23T01:26:40.944Z,12
2018-04-23T01:32:08.343Z,12.1
2018-04-23T01:37:36.748Z,12.1
2018-04-23T01:43:04.232Z,12.2
2018-04-23T01:48:31.837Z,12.3
2018-04-23T01:53:59.905Z,12.3
2018-04-23T01:59:28.338Z,12.4
2018-04-23T02:04:56.759Z,12.4
2018-04-23T02:10:24.159Z,12.5
2018-04-23T02:15:52.545Z,12.5
2018-04-23T02:21:21.013Z,12.5
2018-04-23T02:26:49.462Z,12.5
2018-04-23T02:32:17.855Z,12.5
2018-04-23T02:37:45.235Z,12.5
2018-04-23T02:43:13.644Z,12.4
2018-04-23T02:48:41.055Z,12.3
2018-04-23T02:54:08.467Z,12.3
2018-04-23T02:59:36.840Z,12.3
2018-04-23T03:05:05.265Z,12.2
2018-04-23T03:10:32.685Z,12.2
2018-04-23T03:16:00.167Z,12.1
2018-04-23T03:21:27.455Z,12.1
2018-04-23T03:26:55.339Z,12.1
2018-04-23T03:32:22.265Z,12
2018-04-23T03:37:50.566Z,12
2018-04-23T03:43:18.931Z,12.1
2018-04-23T03:48:47.343Z,12
2018-04-23T03:54:14.685Z,12.1
2018-04-23T03:59:42.142Z,12.1
2018-04-23T04:05:10.470Z,12.1
2018-04-23T04:10:38.927Z,12.2
2018-04-23T04:16:06.199Z,12.1
2018-04-23T04:21:33.576Z,12.1
2018-04-23T04:27:00.966Z,12.1
2018-04-23T04:32:29.376Z,12
2018-04-23T04:37:57.702Z,12
2018-04-23T04:43:26.089Z,12
2018-04-23T04:48:54.419Z,12
2018-04-23T04:54:21.875Z,11.9
2018-04-23T04:59:50.235Z,12
2018-04-23T05:05:18.516Z,12
2018-04-23T05:10:46.912Z,12
2018-04-23T05:16:15.245Z,12.1
2018-04-23T05:21:42.577Z,12.3
2018-04-23T05:27:11.659Z,12.4
2018-04-23T05:32:38.392Z,12.4
2018-04-23T05:38:06.884Z,12.4
2018-04-23T05:43:34.242Z,12.4
2018-04-23T05:49:01.581Z,12.3
2018-04-23T05:54:28.962Z,12.3
2018-04-23T05:59:56.359Z,12.3
2018-04-23T06:05:24.735Z,12.4
2018-04-23T06:10:53.104Z,12.3
2018-04-23T06:16:20.491Z,12.3
2018-04-23T06:21:48.883Z,12.3
2018-04-23T06:27:17.242Z,12.4
2018-04-23T06:32:44.693Z,12.4
2018-04-23T06:38:12.031Z,12.4
2018-04-23T06:43:39.410Z,12.5
2018-04-23T06:49:06.793Z,12.5
2018-04-23T06:54:35.227Z,12.6
2018-04-23T07:00:02.682Z,12.6
2018-04-23T07:05:31.030Z,12.9
2018-04-23T07:10:58.431Z,13
2018-04-23T07:16:26.838Z,13.2
2018-04-23T07:21:54.363Z,13.2
2018-04-23T07:27:21.777Z,13.1
2018-04-23T07:32:50.567Z,13.2
2018-04-23T07:38:17.708Z,13.2
2018-04-23T07:43:46.285Z,13.2
2018-04-23T07:49:13.575Z,13.2
2018-04-23T07:54:41.058Z,13.1
2018-04-23T08:00:09.470Z,13
2018-04-23T08:05:36.900Z,13.1
2018-04-23T08:11:04.541Z,13.4
2018-04-23T08:16:31.824Z,13.6
2018-04-23T08:22:00.283Z,13.7
2018-04-23T08:27:27.787Z,14.1
2018-04-23T08:32:56.382Z,14.2
2018-04-23T08:38:24.904Z,14.4
2018-04-23T08:43:52.552Z,14.5
2018-04-23T08:49:20.590Z,14.4
2018-04-23T08:54:47.598Z,14.2
2018-04-23T09:00:16.107Z,14.2
2018-04-23T09:05:43.614Z,14
2018-04-23T09:11:11.238Z,13.9
2018-04-23T09:16:38.792Z,14.1
2018-04-23T09:22:06.285Z,14.1
2018-04-23T09:27:34.745Z,14
2018-04-23T09:33:03.379Z,14.2
2018-04-23T09:38:30.848Z,14.5
2018-04-23T09:43:59.410Z,14.6
2018-04-23T09:49:28.072Z,14.6
2018-04-23T09:54:55.640Z,14.7
2018-04-23T10:00:23.193Z,14.6
2018-04-23T10:05:50.812Z,14.8
2018-04-23T10:11:19.472Z,14.9
2018-04-23T10:16:47.094Z,15.1
2018-04-23T10:22:15.670Z,15.1
2018-04-23T10:27:43.359Z,15
2018-04-23T10:33:11.937Z,15.1
2018-04-23T10:38:39.630Z,15
2018-04-23T10:44:07.207Z,14.8
2018-04-23T10:49:34.748Z,14.9
2018-04-23T10:55:03.542Z,15.1
2018-04-23T11:00:31.175Z,15.2
2018-04-23T11:05:59.718Z,15.5
2018-04-23T11:11:28.442Z,15.8
2018-04-23T11:16:57.200Z,16
2018-04-23T11:22:24.783Z,15.7
2018-04-23T11:27:53.205Z,15.6
2018-04-23T11:33:20.244Z,15.8
2018-04-23T11:38:48.946Z,16.2
2018-04-23T11:44:16.623Z,16.3
2018-04-23T11:49:45.391Z,16.2
2018-04-23T11:55:13.142Z,16.5
2018-04-23T12:00:40.875Z,16.3
2018-04-23T12:06:09.006Z,16.3
2018-04-23T12:11:37.688Z,16.4
2018-04-23T12:17:06.219Z,16.1
2018-04-23T12:22:33.898Z,15.8
2018-04-23T12:28:02.612Z,15.4
2018-04-23T12:33:30.283Z,15.6
2018-04-23T12:38:58.965Z,15.8
2018-04-23T12:44:31.758Z,15.6
2018-04-23T12:49:54.390Z,15.7
2018-04-23T12:55:22.120Z,16
2018-04-23T13:11:47.310Z,15.4
2018-04-23T13:17:14.879Z,15.7
2018-04-23T13:22:42.578Z,15.7
2018-04-23T13:28:10.313Z,16
2018-04-23T13:33:39.160Z,15.9
2018-04-23T13:39:07.781Z,15.7
2018-04-23T13:44:36.455Z,15.7
2018-04-23T13:50:04.272Z,15.6
2018-04-23T13:55:31.864Z,15.5
2018-04-23T14:00:59.525Z,15.5
2018-04-23T14:06:28.261Z,15.5
2018-04-23T14:11:56.581Z,15.6
2018-04-23T14:17:23.549Z,15.4
2018-04-23T14:22:52.327Z,15.5
2018-04-23T14:28:20.974Z,15.3
2018-04-23T14:33:48.879Z,15.5
2018-04-23T14:39:17.430Z,15.1
2018-04-23T14:44:44.942Z,15
2018-04-23T14:50:12.870Z,15.2
2018-04-23T14:55:40.373Z,15.3
2018-04-23T15:01:08.993Z,15
2018-04-23T15:06:37.771Z,14.7
2018-04-23T15:12:05.166Z,14.4
2018-04-23T15:17:32.988Z,14.6
2018-04-23T15:23:01.414Z,14.3
2018-04-23T15:28:29.876Z,14.1
2018-04-23T15:33:58.618Z,14.3
2018-04-23T15:39:26.145Z,14.4
2018-04-23T15:44:54.646Z,14.3
2018-04-23T15:50:22.174Z,14.2
2018-04-23T15:55:49.689Z,14.1
2018-04-23T16:01:17.320Z,13.9
2018-04-23T16:06:45.353Z,14
2018-04-23T16:12:13.359Z,14
2018-04-23T16:17:41.254Z,13.9
2018-04-23T16:23:09.394Z,13.9
2018-04-23T16:28:36.961Z,13.6
2018-04-23T16:34:05.523Z,13.6
2018-04-23T16:39:33.956Z,13.5
2018-04-23T16:45:01.550Z,13.3
2018-04-23T16:50:28.841Z,13.3
2018-04-23T16:55:56.375Z,13.1
2018-04-23T17:01:23.916Z,12.9
2018-04-23T17:06:52.344Z,12.7
2018-04-23T17:12:20.871Z,12.6
2018-04-23T17:17:49.025Z,12.5
2018-04-23T17:23:16.724Z,12.5
2018-04-23T17:28:43.825Z,12.6
2018-04-23T17:34:17.296Z,12.6
2018-04-23T17:39:39.780Z,12.5
2018-04-23T17:45:07.093Z,12.3
2018-04-23T17:50:35.413Z,12.1
2018-04-23T17:56:03.802Z,12
2018-04-23T18:01:32.116Z,11.9
2018-04-23T18:06:59.440Z,11.8
2018-04-23T18:12:26.770Z,11.6
2018-04-23T18:17:54.073Z,11.5
2018-04-23T18:23:21.406Z,11.4
2018-04-23T18:28:48.752Z,11.3
2018-04-23T18:34:15.920Z,11.3
2018-04-23T18:39:43.567Z,11.2
2018-04-23T18:45:10.670Z,11.2
2018-04-23T18:50:37.879Z,11.1
2018-04-23T18:56:05.271Z,11.1
2018-04-23T19:01:33.720Z,11
2018-04-23T19:07:01.549Z,10.9
2018-04-23T19:12:28.857Z,10.9
2018-04-23T19:17:57.016Z,10.8
2018-04-23T19:23:25.265Z,10.8
2018-04-23T19:28:52.642Z,10.8
2018-04-23T19:34:19.823Z,10.7
2018-04-23T19:39:47.938Z,10.7
2018-04-23T19:45:15.371Z,10.7
2018-04-23T19:50:42.421Z,10.6
2018-04-23T19:56:09.674Z,10.5
2018-04-23T20:01:37.828Z,10.4
2018-04-23T20:07:05.979Z,10.4
2018-04-23T20:12:33.382Z,10.3
2018-04-23T20:18:00.494Z,10.4
2018-04-23T20:23:28.579Z,10.4
2018-04-23T20:28:56.731Z,10.4
2018-04-23T20:34:23.993Z,10.5
2018-04-23T20:39:52.179Z,10.4
2018-04-23T20:45:19.504Z,10.3
2018-04-23T20:50:46.595Z,10.3
2018-04-23T20:56:14.674Z,10.3
2018-04-23T21:01:41.995Z,10.3
2018-04-23T21:07:10.106Z,10.3
2018-04-23T21:12:37.489Z,10.4
2018-04-23T21:18:04.845Z,10.4
2018-04-23T21:23:31.705Z,10.4
2018-04-23T21:28:59.783Z,10.5
2018-04-23T21:34:27.968Z,10.5
2018-04-23T21:39:55.277Z,10.5
2018-04-23T21:45:22.492Z,10.5
2018-04-23T21:50:49.522Z,10.5
2018-04-23T21:56:17.877Z,10.5
2018-04-23T22:01:44.941Z,10.5
2018-04-23T22:07:13.156Z,10.5
2018-04-23T22:12:41.334Z,10.5
2018-04-23T22:18:09.568Z,10.4
2018-04-23T22:23:37.671Z,10.4
2018-04-23T22:29:04.980Z,10.4
2018-04-23T22:34:33.044Z,10.4
2018-04-23T22:40:00.279Z,10.4
2018-04-23T22:45:28.382Z,10.4
2018-04-23T22:50:55.544Z,10.4
2018-04-23T22:56:22.867Z,10.4
2018-04-23T23:01:49.940Z,10.3
2018-04-23T23:07:18.274Z,10.3
2018-04-23T23:12:45.214Z,10.3
2018-04-23T23:18:12.525Z,10.3
2018-04-23T23:23:39.691Z,10.2
2018-04-23T23:29:07.817Z,10.2
2018-04-23T23:34:34.857Z,10.2
2018-04-23T23:40:02.211Z,10.2
2018-04-23T23:45:29.297Z,10.2
2018-04-23T23:50:57.349Z,10.2
2018-04-23T23:56:24.486Z,10.2
